Time;durP1;ratioP1;P1;durP2;ratioP2;P2;SDS_P1;SDS_P2;PMS_P1;PMS_P2;Temp;Humidity;BMP_temperature;BMP_pressure;BME280_temperature;BME280_humidity;BME280_pressure;Samples;Min_cycle;Max_cycle;Signal;HPM_P1;HPM_P2
2022/10/29 00:00:27;;;;;;;11.27;5.47;;;;;;;;;;5087651;28;20052;-88
2022/10/29 00:03:12;;;;;;;12.45;4.72;;;;;;;;;;5098299;28;20051;-88
2022/10/29 00:05:49;;;;;;;15.13;6.70;;;;;;;;;;5097031;28;20044;-88
2022/10/29 00:08:20;;;;;;;9.85;5.07;;;;;;;;;;5098111;27;20091;-88
2022/10/29 00:11:06;;;;;;;;;;;;;;;;;;;;;
2022/10/29 00:13:45;;;;;;;13.70;5.68;;;;;;;;;;5093949;28;40265;-88
2022/10/29 00:16:46;;;;;;;10.30;5.25;;;;;;;;;;5096124;28;20064;-88
2022/10/29 00:19:54;;;;;;;10.43;4.60;;;;;;;;;;5132558;27;20075;-89
2022/10/29 00:25:32;;;;;;;19.38;5.32;;;;;;;;;;5136797;27;20051;-88
2022/10/29 00:31:11;;;;;;;;;;;;;;;;;;;;;
2022/10/29 00:33:54;;;;;;;9.63;5.00;;;;;;;;;;5131739;27;41761;-89
2022/10/29 00:36:53;;;;;;;11.73;5.15;;;;;;;;;;5128616;27;20051;-89
2022/10/29 00:39:19;;;;;;;13.32;5.85;;;;;;;;;;5105666;27;20055;-88
2022/10/29 00:41:59;;;;;;;12.40;5.10;;;;;;;;;;5119607;27;20032;-88
2022/10/29 00:44:52;;;;;;;14.52;5.47;;;;;;;;;;5121872;27;20047;-88
2022/10/29 00:47:43;;;;;;;12.48;4.90;;;;;;;;;;5114085;27;20039;-88
2022/10/29 00:50:15;;;;;;;8.55;3.83;;;;;;;;;;5120690;27;20522;-88
2022/10/29 00:52:44;;;;;;;;;;;;;;;;;;5117306;27;20050;-87
2022/10/29 00:55:14;;;;;;;10.40;4.72;;;;;;;;;;5112082;27;20339;-88
2022/10/29 01:00:55;;;;;;;10.60;5.32;;;;;;;;;;5134726;27;20051;-88
2022/10/29 01:03:42;;;;;;;10.35;4.82;;;;;;;;;;5117528;27;20052;-88
2022/10/29 01:06:17;;;;;;;17.45;4.85;;;;;;;;;;5115249;27;20890;-87
2022/10/29 01:08:52;;;;;;;10.23;4.63;;;;;;;;;;5111751;27;20039;-87
2022/10/29 01:11:37;;;;;;;14.27;5.70;;;;;;;;;;5085741;27;20644;-87
2022/10/29 01:14:29;;;;;;;17.42;5.18;;;;;;;;;;5085150;27;20053;-87
2022/10/29 01:17:29;;;;;;;8.60;4.85;;;;;;;;;;5085215;27;20163;-87
2022/10/29 01:20:13;;;;;;;11.05;4.97;;;;;;;;;;5070641;27;20052;-88
2022/10/29 01:22:58;;;;;;;14.60;5.60;;;;;;;;;;5068601;27;20126;-87
2022/10/29 01:25:46;;;;;;;12.77;5.20;;;;;;;;;;5083845;27;20565;-87
2022/10/29 01:28:29;;;;;;;11.35;5.22;;;;;;;;;;5084158;27;20242;-87
2022/10/29 01:31:14;;;;;;;10.55;5.65;;;;;;;;;;5067495;27;20048;-87
2022/10/29 01:34:08;;;;;;;;;;;;;;;;;;;;;
2022/10/29 01:36:52;;;;;;;14.07;5.72;;;;;;;;;;5099508;27;43632;-87
2022/10/29 01:39:47;;;;;;;9.25;4.82;;;;;;;;;;5112223;27;20051;-86
2022/10/29 01:42:45;;;;;;;13.35;4.85;;;;;;;;;;5116637;27;20152;-87
2022/10/29 01:45:53;;;;;;;12.00;5.25;;;;;;;;;;5111711;27;20082;-86
2022/10/29 01:48:48;;;;;;;10.80;5.28;;;;;;;;;;5100637;27;20106;-84
2022/10/29 01:51:27;;;;;;;12.13;7.43;;;;;;;;;;5113590;27;20039;-84
2022/10/29 01:54:02;;;;;;;11.85;5.00;;;;;;;;;;5107370;27;20052;-84
2022/10/29 01:56:29;;;;;;;8.45;4.55;;;;;;;;;;5110832;27;20168;-84
2022/10/29 01:59:09;;;;;;;9.85;5.53;;;;;;;;;;5108829;27;20072;-84
2022/10/29 02:01:49;;;;;;;12.82;5.20;;;;;;;;;;5110082;27;20054;-83
2022/10/29 02:04:32;;;;;;;10.02;4.65;;;;;;;;;;5112454;27;20040;-84
2022/10/29 02:07:07;;;;;;;12.05;5.15;;;;;;;;;;5107938;27;20043;-84
2022/10/29 02:09:39;;;;;;;10.77;6.40;;;;;;;;;;5110019;27;20507;-84
2022/10/29 02:12:24;;;;;;;12.75;5.47;;;;;;;;;;5112101;27;20047;-84
2022/10/29 02:15:16;;;;;;;9.60;5.07;;;;;;;;;;5114551;27;20134;-83
2022/10/29 02:17:49;;;;;;;12.75;5.10;;;;;;;;;;5114253;27;20119;-84
2022/10/29 02:20:19;;;;;;;13.57;4.68;;;;;;;;;;5132221;27;20122;-84
2022/10/29 02:22:53;;;;;;;16.63;5.13;;;;;;;;;;5114972;27;20051;-84
2022/10/29 02:25:31;;;;;;;11.57;4.95;;;;;;;;;;5135967;27;20039;-84
2022/10/29 02:28:14;;;;;;;;;;;;;;;;;;;;;
2022/10/29 02:30:53;;;;;;;8.82;5.13;;;;;;;;;;5131363;27;42439;-84
2022/10/29 02:33:42;;;;;;;12.23;5.05;;;;;;;;;;5120738;27;20050;-84
2022/10/29 02:36:10;;;;;;;15.98;5.03;;;;;;;;;;5114104;27;20239;-84
2022/10/29 02:38:41;;;;;;;11.30;4.93;;;;;;;;;;5113089;27;20094;-83
2022/10/29 02:41:32;;;;;;;10.63;5.50;;;;;;;;;;5096461;27;20051;-84
2022/10/29 02:44:08;;;;;;;7.88;5.65;;;;;;;;;;5114936;27;20051;-84
2022/10/29 02:46:51;;;;;;;11.95;5.93;;;;;;;;;;5098570;27;20146;-83
2022/10/29 02:52:20;;;;;;;13.27;5.28;;;;;;;;;;5131719;27;20039;-83
2022/10/29 02:54:54;;;;;;;10.80;6.45;;;;;;;;;;5129718;27;20050;-84
2022/10/29 02:57:28;;;;;;;8.18;4.38;;;;;;;;;;5111123;28;20056;-84
2022/10/29 03:00:11;;;;;;;11.07;4.80;;;;;;;;;;5110256;28;20144;-84
2022/10/29 03:02:45;;;;;;;9.27;4.03;;;;;;;;;;5092712;28;20044;-84
2022/10/29 03:05:27;;;;;;;8.55;4.13;;;;;;;;;;5110284;28;20192;-84
2022/10/29 03:08:02;;;;;;;8.43;4.63;;;;;;;;;;5095446;28;20104;-84
2022/10/29 03:10:31;;;;;;;10.77;5.55;;;;;;;;;;5083898;28;20059;-84
2022/10/29 03:13:08;;;;;;;8.70;5.28;;;;;;;;;;5080848;28;20048;-84
2022/10/29 03:15:40;;;;;;;9.18;4.20;;;;;;;;;;5111896;28;20199;-84
2022/10/29 03:18:21;;;;;;;12.30;5.60;;;;;;;;;;5114855;28;20127;-84
2022/10/29 03:20:59;;;;;;;;;;;;;;;;;;;;;
2022/10/29 03:23:25;;;;;;;12.77;5.00;;;;;;;;;;5146829;27;43442;-84
2022/10/29 03:26:00;;;;;;;18.90;7.25;;;;;;;;;;5115579;27;20114;-85
2022/10/29 03:28:36;;;;;;;15.18;6.45;;;;;;;;;;5124713;27;20079;-84
2022/10/29 03:31:44;;;;;;;8.18;4.72;;;;;;;;;;5125450;27;20054;-85
2022/10/29 03:34:15;;;;;;;13.38;4.95;;;;;;;;;;5132720;27;20046;-84
2022/10/29 03:36:48;;;;;;;12.30;5.88;;;;;;;;;;5129859;27;20054;-85
2022/10/29 03:39:27;;;;;;;;;;;;;;;;;;;;;
2022/10/29 03:42:02;;;;;;;9.10;4.90;;;;;;;;;;5131303;27;44713;-85
2022/10/29 03:44:37;;;;;;;8.70;4.32;;;;;;;;;;5116175;27;20051;-84
2022/10/29 03:47:10;;;;;;;7.38;4.43;;;;;;;;;;5115052;27;20059;-84
2022/10/29 03:49:44;;;;;;;9.80;4.55;;;;;;;;;;5113738;27;20039;-84
2022/10/29 03:52:10;;;;;;;7.63;4.68;;;;;;;;;;5113251;27;21240;-84
2022/10/29 03:54:50;;;;;;;11.90;5.30;;;;;;;;;;5114755;27;20047;-84
2022/10/29 03:57:36;;;;;;;23.50;6.15;;;;;;;;;;5117016;27;20449;-84
2022/10/29 04:00:08;;;;;;;8.88;4.13;;;;;;;;;;5113256;27;20047;-84
2022/10/29 04:02:40;;;;;;;16.38;4.78;;;;;;;;;;5117437;27;20050;-84
2022/10/29 04:05:22;;;;;;;14.27;5.55;;;;;;;;;;5112943;27;20534;-84
2022/10/29 04:08:03;;;;;;;12.23;4.50;;;;;;;;;;5115342;27;20043;-84
2022/10/29 04:10:46;;;;;;;;;;;;;;;;;;;;;
2022/10/29 04:13:24;;;;;;;11.07;3.97;;;;;;;;;;5132706;27;42381;-85
2022/10/29 04:16:05;;;;;;;13.90;6.20;;;;;;;;;;5111605;27;20202;-84
2022/10/29 04:18:34;;;;;;;12.05;4.85;;;;;;;;;;5110657;27;20631;-84
2022/10/29 04:21:06;;;;;;;11.60;4.93;;;;;;;;;;5113548;27;20049;-84
2022/10/29 04:23:32;;;;;;;;;;;;;;;;;;5112153;27;20115;-83
2022/10/29 04:26:05;;;;;;;10.68;4.70;;;;;;;;;;5113247;27;19962;-84
2022/10/29 04:28:42;;;;;;;10.20;4.90;;;;;;;;;;5107455;27;20043;-84
2022/10/29 04:31:10;;;;;;;9.68;4.57;;;;;;;;;;5111681;27;20139;-84
2022/10/29 04:33:45;;;;;;;9.93;5.40;;;;;;;;;;5111200;27;20052;-84
2022/10/29 04:36:22;;;;;;;13.20;5.75;;;;;;;;;;5104489;27;20040;-84
2022/10/29 04:39:16;;;;;;;8.68;4.25;;;;;;;;;;5109512;27;20044;-83
2022/10/29 04:41:57;;;;;;;11.23;4.32;;;;;;;;;;5104856;27;20054;-84
2022/10/29 04:44:37;;;;;;;15.13;4.72;;;;;;;;;;5113476;27;20947;-83
2022/10/29 04:47:29;;;;;;;10.35;4.85;;;;;;;;;;5109957;27;20090;-84
2022/10/29 04:50:03;;;;;;;12.57;4.45;;;;;;;;;;5108640;27;20108;-85
2022/10/29 04:52:35;;;;;;;13.57;4.70;;;;;;;;;;5107478;27;20145;-85
2022/10/29 04:55:05;;;;;;;;;;;;;;;;;;5107160;27;20052;-85
2022/10/29 04:57:34;;;;;;;13.70;4.90;;;;;;;;;;5111553;27;19920;-84
2022/10/29 05:00:13;;;;;;;9.90;4.93;;;;;;;;;;5102491;27;20048;-85
2022/10/29 05:02:57;;;;;;;24.63;6.18;;;;;;;;;;5111909;27;20533;-85
2022/10/29 05:05:39;;;;;;;13.95;5.82;;;;;;;;;;5107329;27;20071;-84
2022/10/29 05:08:05;;;;;;;;;;;;;;;;;;5107483;27;20055;-85
2022/10/29 05:10:41;;;;;;;12.07;4.53;;;;;;;;;;5108325;27;19926;-85
2022/10/29 05:13:30;;;;;;;16.45;4.25;;;;;;;;;;5105369;27;20044;-84
2022/10/29 05:16:05;;;;;;;7.10;4.75;;;;;;;;;;5115103;27;20039;-87
2022/10/29 05:18:57;;;;;;;11.68;4.22;;;;;;;;;;5112067;27;20047;-87
2022/10/29 05:27:35;;;;;;;13.88;5.38;;;;;;;;;;5131582;27;20051;-87
2022/10/29 05:30:26;;;;;;;10.57;5.22;;;;;;;;;;5112586;27;20951;-87
2022/10/29 05:36:05;;;;;;;6.13;4.20;;;;;;;;;;5136048;27;20043;-87
2022/10/29 05:38:39;;;;;;;10.73;4.75;;;;;;;;;;5115124;27;20083;-87
2022/10/29 05:41:13;;;;;;;10.75;5.05;;;;;;;;;;5086471;28;20185;-87
2022/10/29 05:43:53;;;;;;;;;;;;;;;;;;;;;
2022/10/29 05:46:32;;;;;;;9.82;4.10;;;;;;;;;;5085586;28;40586;-88
2022/10/29 05:49:12;;;;;;;10.90;5.22;;;;;;;;;;5069117;28;20048;-87
2022/10/29 05:51:58;;;;;;;10.23;4.90;;;;;;;;;;5073841;28;20112;-87
2022/10/29 05:54:57;;;;;;;11.27;4.20;;;;;;;;;;5083122;28;20052;-87
2022/10/29 06:00:32;;;;;;;11.82;4.13;;;;;;;;;;5072066;28;20092;-87
2022/10/29 06:03:36;;;;;;;12.48;5.05;;;;;;;;;;5085477;28;20040;-88
2022/10/29 06:06:10;;;;;;;10.63;4.65;;;;;;;;;;5012481;28;20046;-87
2022/10/29 06:08:51;;;;;;;7.50;4.65;;;;;;;;;;5017438;28;20274;-87
2022/10/29 06:17:49;;;;;;;13.85;4.75;;;;;;;;;;5053199;28;20052;-87
2022/10/29 06:23:50;;;;;;;8.75;4.75;;;;;;;;;;5082252;28;20197;-87
2022/10/29 06:26:25;;;;;;;11.02;5.03;;;;;;;;;;5071752;28;20052;-88
2022/10/29 06:29:04;;;;;;;7.50;4.53;;;;;;;;;;5079058;28;20113;-87
2022/10/29 06:35:27;;;;;;;;;;;;;;;;;;;;;
2022/10/29 06:38:07;;;;;;;10.68;5.13;;;;;;;;;;5047390;28;42678;-87
2022/10/29 06:40:40;;;;;;;12.02;4.18;;;;;;;;;;5093793;27;20052;-86
2022/10/29 06:43:36;;;;;;;13.98;5.53;;;;;;;;;;5117561;27;20740;-86
2022/10/29 06:46:19;;;;;;;15.27;5.45;;;;;;;;;;5118026;27;20052;-85
2022/10/29 06:49:02;;;;;;;;;;;;;;;;;;5109052;27;20040;-86
2022/10/29 06:51:53;;;;;;;11.25;4.75;;;;;;;;;;5110956;27;19919;-85
2022/10/29 06:54:27;;;;;;;9.25;4.47;;;;;;;;;;5107513;27;20545;-86
2022/10/29 06:57:10;;;;;;;;;;;;;;;;;;;;;
2022/10/29 06:59:52;;;;;;;;;;;;;;;;;;;;;
2022/10/29 07:05:16;;;;;;;11.15;4.95;;;;;;;;;;5110202;27;20097;-85
2022/10/29 07:08:03;;;;;;;8.73;4.07;;;;;;;;;;5116481;27;20044;-84
2022/10/29 07:11:01;;;;;;;12.05;4.47;;;;;;;;;;5109681;27;20038;-86
2022/10/29 07:13:36;;;;;;;11.35;5.65;;;;;;;;;;5105721;27;20076;-86
2022/10/29 07:16:24;;;;;;;10.52;5.05;;;;;;;;;;5106545;27;20048;-86
2022/10/29 07:18:56;;;;;;;7.82;4.25;;;;;;;;;;5115558;27;20043;-88
2022/10/29 07:21:51;;;;;;;9.98;4.00;;;;;;;;;;5117110;27;20061;-85
2022/10/29 07:24:45;;;;;;;9.18;4.45;;;;;;;;;;5113819;27;20043;-84
2022/10/29 07:27:26;;;;;;;12.35;3.83;;;;;;;;;;5115523;27;20044;-81
2022/10/29 07:30:02;;;;;;;7.38;3.90;;;;;;;;;;5113230;27;20043;-81
2022/10/29 07:32:45;;;;;;;12.95;4.93;;;;;;;;;;5091778;28;20085;-80
2022/10/29 07:35:19;;;;;;;11.18;4.65;;;;;;;;;;5091371;27;20055;-81
2022/10/29 07:37:48;;;;;;;9.02;3.90;;;;;;;;;;5075894;28;20077;-81
2022/10/29 07:40:22;;;;;;;9.93;4.60;;;;;;;;;;5075185;28;20678;-81
2022/10/29 07:43:14;;;;;;;13.68;5.13;;;;;;;;;;5067106;28;20036;-81
2022/10/29 07:45:49;;;;;;;11.75;3.80;;;;;;;;;;5074946;28;20044;-81
2022/10/29 07:48:23;;;;;;;10.18;4.13;;;;;;;;;;5072286;28;20107;-81
2022/10/29 07:51:09;;;;;;;7.70;4.07;;;;;;;;;;5064056;28;20067;-82
2022/10/29 07:53:38;;;;;;;10.95;4.90;;;;;;;;;;5065444;27;20052;-81
2022/10/29 07:56:05;;;;;;;9.40;5.25;;;;;;;;;;5078395;27;20146;-81
2022/10/29 07:58:51;;;;;;;6.78;3.90;;;;;;;;;;5110941;27;20103;-81
2022/10/29 08:01:30;;;;;;;10.55;4.40;;;;;;;;;;5109673;27;20043;-80
2022/10/29 08:04:03;;;;;;;12.15;4.82;;;;;;;;;;5133507;27;20035;-78
2022/10/29 08:06:38;;;;;;;11.20;4.68;;;;;;;;;;5115630;27;21223;-80
2022/10/29 08:09:21;;;;;;;;;;;;;;;;;;;;;
2022/10/29 08:11:59;;;;;;;12.63;5.10;;;;;;;;;;5129788;27;43592;-80
2022/10/29 08:14:33;;;;;;;10.10;5.00;;;;;;;;;;5118118;27;20055;-80
2022/10/29 08:17:14;;;;;;;10.85;4.50;;;;;;;;;;5115829;27;20143;-80
2022/10/29 08:19:53;;;;;;;9.93;4.82;;;;;;;;;;5129700;27;20055;-81
2022/10/29 08:22:19;;;;;;;11.77;6.10;;;;;;;;;;5115770;27;20104;-82
2022/10/29 08:24:54;;;;;;;11.45;4.65;;;;;;;;;;5117197;27;20551;-79
2022/10/29 08:27:32;;;;;;;14.70;5.05;;;;;;;;;;5115401;27;20043;-80
2022/10/29 08:30:03;;;;;;;9.38;4.63;;;;;;;;;;5113220;27;20047;-80
2022/10/29 08:32:40;;;;;;;10.68;4.75;;;;;;;;;;5115469;27;20059;-82
2022/10/29 08:35:06;;;;;;;11.32;5.15;;;;;;;;;;5116003;27;20047;-81
2022/10/29 08:37:43;;;;;;;8.98;4.07;;;;;;;;;;5115759;27;20062;-80
2022/10/29 08:40:36;;;;;;;16.95;5.10;;;;;;;;;;5109290;27;20047;-80
2022/10/29 08:43:21;;;;;;;11.40;3.88;;;;;;;;;;5086267;27;20500;-80
2022/10/29 08:46:10;;;;;;;;;;;;;;;;;;;;;
2022/10/29 08:48:50;;;;;;;10.60;3.50;;;;;;;;;;5132465;27;38116;-81
2022/10/29 08:51:22;;;;;;;11.00;4.10;;;;;;;;;;5110136;27;20054;-76
2022/10/29 08:54:05;;;;;;;8.23;4.38;;;;;;;;;;5130097;27;20073;-76
2022/10/29 08:56:55;;;;;;;8.40;3.40;;;;;;;;;;5085750;27;20044;-80
2022/10/29 08:59:35;;;;;;;8.98;4.35;;;;;;;;;;5072017;27;20194;-79
2022/10/29 09:02:13;;;;;;;11.70;5.10;;;;;;;;;;5067236;28;20040;-79
2022/10/29 09:04:56;;;;;;;6.72;2.95;;;;;;;;;;5067997;28;20063;-78
2022/10/29 09:07:23;;;;;;;15.20;4.03;;;;;;;;;;5072731;28;20047;-78
2022/10/29 09:09:58;;;;;;;9.70;4.50;;;;;;;;;;5074860;27;20047;-78
2022/10/29 09:12:49;;;;;;;12.75;3.63;;;;;;;;;;5070134;28;20049;-78
2022/10/29 09:15:32;;;;;;;15.15;4.05;;;;;;;;;;5074238;27;20103;-77
2022/10/29 09:18:26;;;;;;;;;;;;;;;;;;;;;
2022/10/29 09:21:24;;;;;;;12.77;4.28;;;;;;;;;;5093432;27;39313;-79
2022/10/29 09:24:30;;;;;;;9.57;3.65;;;;;;;;;;5043630;28;20048;-79
2022/10/29 09:27:20;;;;;;;11.70;3.60;;;;;;;;;;5105359;27;20047;-79
2022/10/29 09:29:55;;;;;;;9.88;4.13;;;;;;;;;;5124022;27;20058;-78
2022/10/29 09:32:47;;;;;;;10.30;4.75;;;;;;;;;;5134141;27;20024;-80
2022/10/29 09:35:18;;;;;;;10.67;4.50;;;;;;;;;;5134728;27;20100;-80
2022/10/29 09:38:09;;;;;;;13.98;5.20;;;;;;;;;;5129294;27;20117;-78
2022/10/29 09:40:54;;;;;;;10.77;3.10;;;;;;;;;;5118949;27;20108;-79
2022/10/29 09:43:26;;;;;;;7.72;3.10;;;;;;;;;;5134949;27;20031;-80
2022/10/29 09:46:29;;;;;;;11.00;4.60;;;;;;;;;;5118417;27;20047;-80
2022/10/29 09:49:20;;;;;;;11.40;4.75;;;;;;;;;;5116902;27;20032;-80
2022/10/29 09:52:02;;;;;;;9.67;4.13;;;;;;;;;;5123447;27;20047;-80
2022/10/29 09:57:28;;;;;;;;;;;;;;;;;;5113787;27;20498;-80
2022/10/29 10:00:06;;;;;;;10.60;4.20;;;;;;;;;;5135219;27;19948;-79
2022/10/29 10:02:53;;;;;;;9.55;4.00;;;;;;;;;;5120047;27;20050;-80
2022/10/29 10:05:31;;;;;;;7.20;3.30;;;;;;;;;;5120164;27;20043;-80
2022/10/29 10:08:08;;;;;;;10.02;3.83;;;;;;;;;;5120261;27;20055;-80
2022/10/29 10:10:55;;;;;;;9.02;3.70;;;;;;;;;;5120936;27;20619;-81
2022/10/29 10:13:38;;;;;;;11.02;3.03;;;;;;;;;;5121626;27;20057;-79
2022/10/29 10:16:17;;;;;;;7.97;3.42;;;;;;;;;;5140189;27;20594;-80
2022/10/29 10:18:43;;;;;;;9.38;3.15;;;;;;;;;;5139167;27;20036;-80
2022/10/29 10:21:15;;;;;;;8.88;3.88;;;;;;;;;;5116757;27;20064;-81
2022/10/29 10:23:53;;;;;;;10.43;3.08;;;;;;;;;;5117573;27;20050;-80
2022/10/29 10:26:35;;;;;;;12.40;3.40;;;;;;;;;;5117352;27;20044;-80
2022/10/29 10:29:20;;;;;;;5.43;3.13;;;;;;;;;;5120209;27;20048;-80
2022/10/29 10:32:12;;;;;;;5.70;2.97;;;;;;;;;;5113837;27;20048;-80
2022/10/29 10:34:48;;;;;;;10.77;3.42;;;;;;;;;;5116445;27;20035;-80
2022/10/29 10:38:01;;;;;;;11.48;3.83;;;;;;;;;;5119871;27;20070;-80
2022/10/29 10:40:36;;;;;;;7.15;3.55;;;;;;;;;;5119641;27;20031;-80
2022/10/29 10:43:25;;;;;;;11.18;3.85;;;;;;;;;;5132774;27;20362;-80
2022/10/29 10:46:03;;;;;;;12.55;4.78;;;;;;;;;;5118437;27;20048;-80
2022/10/29 10:48:36;;;;;;;8.70;3.10;;;;;;;;;;5114534;27;20047;-81
2022/10/29 10:51:11;;;;;;;7.90;3.10;;;;;;;;;;5112474;27;20496;-82
2022/10/29 10:53:48;;;;;;;10.98;3.50;;;;;;;;;;5113998;27;20055;-83
2022/10/29 10:56:23;;;;;;;11.30;3.67;;;;;;;;;;5116113;27;21769;-82
2022/10/29 10:59:07;;;;;;;6.95;3.65;;;;;;;;;;5109243;27;20874;-88
2022/10/29 11:02:03;;;;;;;14.18;3.30;;;;;;;;;;5112552;27;20040;-85
2022/10/29 11:04:44;;;;;;;10.80;3.58;;;;;;;;;;5114260;27;20078;-79
2022/10/29 11:07:24;;;;;;;12.30;3.15;;;;;;;;;;5109024;27;20498;-79
2022/10/29 11:10:04;;;;;;;11.52;3.42;;;;;;;;;;5111269;27;20055;-78
2022/10/29 11:12:39;;;;;;;15.60;3.90;;;;;;;;;;5113807;27;21037;-73
2022/10/29 11:15:24;;;;;;;13.10;4.13;;;;;;;;;;5113958;27;20189;-74
2022/10/29 11:18:16;;;;;;;16.45;4.60;;;;;;;;;;5113462;27;20048;-79
2022/10/29 11:23:39;;;;;;;12.88;4.50;;;;;;;;;;5132771;27;20047;-89
2022/10/29 11:29:58;;;;;;;13.98;4.65;;;;;;;;;;5034839;28;20045;-81
2022/10/29 11:32:43;;;;;;;9.68;4.07;;;;;;;;;;5018183;28;22395;-81
2022/10/29 11:35:12;;;;;;;14.23;4.68;;;;;;;;;;5017942;28;20509;-82
2022/10/29 11:38:19;;;;;;;44.97;15.95;;;;;;;;;;5090279;27;20141;-82
2022/10/29 11:41:09;;;;;;;11.70;5.32;;;;;;;;;;5105613;27;20054;-81
2022/10/29 11:43:44;;;;;;;42.72;13.50;;;;;;;;;;5114726;27;20051;-82
2022/10/29 11:46:53;;;;;;;6.53;3.53;;;;;;;;;;5112502;27;20039;-81
2022/10/29 11:49:56;;;;;;;12.00;4.10;;;;;;;;;;5114490;27;22001;-81
2022/10/29 11:52:31;;;;;;;22.23;7.63;;;;;;;;;;5134855;27;20070;-82
2022/10/29 11:55:18;;;;;;;17.63;6.38;;;;;;;;;;5119669;27;20043;-81
2022/10/29 11:58:03;;;;;;;14.38;7.32;;;;;;;;;;5120803;27;20050;-81
2022/10/29 12:01:10;;;;;;;11.90;4.07;;;;;;;;;;5118439;27;20516;-81
2022/10/29 12:03:53;;;;;;;13.60;4.30;;;;;;;;;;5089383;27;20055;-82
2022/10/29 12:06:36;;;;;;;12.18;5.05;;;;;;;;;;5118424;27;20047;-82
2022/10/29 12:09:29;;;;;;;12.05;4.82;;;;;;;;;;5120981;27;20043;-81
2022/10/29 12:12:23;;;;;;;7.53;3.50;;;;;;;;;;5117115;27;20061;-81
2022/10/29 12:15:19;;;;;;;10.07;5.07;;;;;;;;;;5114979;27;20046;-81
2022/10/29 12:17:54;;;;;;;10.07;3.78;;;;;;;;;;5119424;27;20078;-86
2022/10/29 12:20:38;;;;;;;10.55;3.15;;;;;;;;;;5113624;27;20796;-81
2022/10/29 12:23:24;;;;;;;12.88;3.78;;;;;;;;;;5115069;27;20544;-81
2022/10/29 12:26:13;;;;;;;8.88;3.63;;;;;;;;;;5113320;27;20083;-81
2022/10/29 12:28:50;;;;;;;11.10;3.22;;;;;;;;;;5118901;27;20047;-81
2022/10/29 12:31:19;;;;;;;9.43;3.92;;;;;;;;;;5137478;27;20072;-81
2022/10/29 12:34:14;;;;;;;;;;;;;;;;;;;;;
2022/10/29 12:37:12;;;;;;;9.13;3.72;;;;;;;;;;5149703;27;42702;-79
2022/10/29 12:39:59;;;;;;;7.50;4.00;;;;;;;;;;5118101;27;20919;-85
2022/10/29 12:42:38;;;;;;;5.93;2.88;;;;;;;;;;5134263;27;20050;-82
2022/10/29 12:45:29;;;;;;;8.57;3.28;;;;;;;;;;5122661;27;20039;-83
2022/10/29 12:48:33;;;;;;;7.25;3.25;;;;;;;;;;5100469;27;20537;-85
2022/10/29 12:51:04;;;;;;;9.00;3.30;;;;;;;;;;5087254;28;20051;-86
2022/10/29 12:53:39;;;;;;;6.45;2.67;;;;;;;;;;5085768;27;20063;-87
2022/10/29 12:56:26;;;;;;;10.43;4.15;;;;;;;;;;5090531;27;20131;-86
2022/10/29 12:58:56;;;;;;;11.05;4.10;;;;;;;;;;5071015;28;20481;-87
2022/10/29 13:01:28;;;;;;;10.38;3.70;;;;;;;;;;5082403;27;20048;-86
2022/10/29 13:04:03;;;;;;;12.55;3.17;;;;;;;;;;5079247;27;20046;-87
2022/10/29 13:06:52;;;;;;;6.88;3.30;;;;;;;;;;5079241;28;20565;-88
2022/10/29 13:09:41;;;;;;;7.65;3.33;;;;;;;;;;5076131;28;21020;-85
2022/10/29 13:12:38;;;;;;;12.23;4.82;;;;;;;;;;5048521;28;20045;-89
2022/10/29 13:15:25;;;;;;;14.10;4.47;;;;;;;;;;5076212;28;20036;-86
2022/10/29 13:17:55;;;;;;;15.50;4.97;;;;;;;;;;5058080;28;21099;-82
2022/10/29 13:20:43;;;;;;;113.93;36.38;;;;;;;;;;5074325;28;20522;-88
2022/10/29 13:26:53;;;;;;;17.55;5.05;;;;;;;;;;5073771;28;21320;-86
2022/10/29 13:30:00;;;;;;;8.70;4.07;;;;;;;;;;5056274;28;20088;-87
2022/10/29 13:32:39;;;;;;;10.07;4.05;;;;;;;;;;5053643;28;20209;-78
2022/10/29 13:35:34;;;;;;;29.48;6.43;;;;;;;;;;5038981;28;20561;-81
2022/10/29 13:38:14;;;;;;;12.40;3.97;;;;;;;;;;5039851;28;21978;-83
2022/10/29 13:43:58;;;;;;;12.15;3.85;;;;;;;;;;5058456;28;20049;-82
2022/10/29 13:46:46;;;;;;;6.43;3.70;;;;;;;;;;5057376;28;20045;-82
2022/10/29 13:49:40;;;;;;;12.05;5.10;;;;;;;;;;5056469;28;20041;-83
2022/10/29 13:55:13;;;;;;;11.60;3.63;;;;;;;;;;5074077;28;20204;-83
2022/10/29 14:01:14;;;;;;;12.50;4.20;;;;;;;;;;5075504;28;20577;-83
2022/10/29 14:07:05;;;;;;;8.52;4.55;;;;;;;;;;5069895;28;20051;-82
2022/10/29 14:09:54;;;;;;;13.40;3.75;;;;;;;;;;5060306;28;20187;-83
2022/10/29 14:12:38;;;;;;;6.85;3.30;;;;;;;;;;5065130;28;20044;-83
2022/10/29 14:15:12;;;;;;;12.65;4.43;;;;;;;;;;5057547;28;20067;-83
2022/10/29 14:17:48;;;;;;;12.73;3.83;;;;;;;;;;5113448;27;20129;-83
2022/10/29 14:20:21;;;;;;;11.20;3.53;;;;;;;;;;5114710;27;20051;-84
2022/10/29 14:23:14;;;;;;;11.25;4.30;;;;;;;;;;5112903;27;20575;-82
2022/10/29 14:25:58;;;;;;;17.33;4.43;;;;;;;;;;5115642;27;20053;-82
2022/10/29 14:28:33;;;;;;;8.32;3.30;;;;;;;;;;5109158;27;20048;-83
2022/10/29 14:31:08;;;;;;;8.90;3.17;;;;;;;;;;5113014;27;20563;-83
2022/10/29 14:33:38;;;;;;;9.20;3.80;;;;;;;;;;5113552;27;20055;-83
2022/10/29 14:36:23;;;;;;;10.23;3.60;;;;;;;;;;5115430;27;20143;-83
2022/10/29 14:39:04;;;;;;;8.85;4.07;;;;;;;;;;5115365;27;20046;-89
2022/10/29 14:41:44;;;;;;;10.13;3.88;;;;;;;;;;5116424;27;20044;-85
2022/10/29 14:44:25;;;;;;;11.32;3.72;;;;;;;;;;5098372;28;20054;-84
2022/10/29 14:47:18;;;;;;;13.32;4.35;;;;;;;;;;5071296;28;20118;-88
2022/10/29 14:49:48;;;;;;;7.32;2.97;;;;;;;;;;5072089;28;20130;-81
2022/10/29 14:52:46;;;;;;;7.38;4.18;;;;;;;;;;5077550;28;20048;-83
2022/10/29 14:55:41;;;;;;;9.93;3.33;;;;;;;;;;5073163;28;20060;-85
2022/10/29 14:58:41;;;;;;;12.05;4.55;;;;;;;;;;5073692;28;20137;-84
2022/10/29 15:01:42;;;;;;;9.40;3.47;;;;;;;;;;5075133;28;20548;-84
2022/10/29 15:04:31;;;;;;;8.10;3.63;;;;;;;;;;5078313;28;20048;-84
2022/10/29 15:07:16;;;;;;;10.60;4.07;;;;;;;;;;5049218;28;20541;-83
2022/10/29 15:10:05;;;;;;;9.63;3.47;;;;;;;;;;5113949;27;20055;-85
2022/10/29 15:12:44;;;;;;;7.63;3.55;;;;;;;;;;5119121;27;20067;-83
2022/10/29 15:15:17;;;;;;;9.32;3.47;;;;;;;;;;5124764;27;20067;-83
2022/10/29 15:18:02;;;;;;;6.78;3.30;;;;;;;;;;5124015;27;20048;-80
2022/10/29 15:20:55;;;;;;;6.90;3.55;;;;;;;;;;5126273;27;20043;-81
2022/10/29 15:23:51;;;;;;;13.50;4.20;;;;;;;;;;5139965;27;20039;-83
2022/10/29 15:26:27;;;;;;;7.53;3.35;;;;;;;;;;5102411;27;20101;-82
2022/10/29 15:29:04;;;;;;;13.02;2.97;;;;;;;;;;5126324;27;20542;-81
2022/10/29 15:31:35;;;;;;;5.43;3.03;;;;;;;;;;5125633;27;20051;-82
2022/10/29 15:37:47;;;;;;;11.95;3.95;;;;;;;;;;5084241;28;20240;-83
2022/10/29 15:40:32;;;;;;;10.00;3.65;;;;;;;;;;5049228;28;20049;-89
2022/10/29 15:43:27;;;;;;;12.95;3.50;;;;;;;;;;5123569;27;20047;-85
2022/10/29 15:46:17;;;;;;;12.00;3.22;;;;;;;;;;5119697;27;20624;-83
2022/10/29 15:52:18;;;;;;;13.02;2.55;;;;;;;;;;5113775;27;20047;-84
2022/10/29 15:54:48;;;;;;;9.85;4.10;;;;;;;;;;5108541;27;20056;-83
2022/10/29 15:57:17;;;;;;;7.40;3.50;;;;;;;;;;5113684;27;20039;-83
2022/10/29 15:59:56;;;;;;;13.52;4.07;;;;;;;;;;5117558;27;20032;-82
2022/10/29 16:02:41;;;;;;;8.20;2.85;;;;;;;;;;5109566;27;20044;-83
2022/10/29 16:05:23;;;;;;;10.48;4.25;;;;;;;;;;5113107;27;21135;-83
2022/10/29 16:08:22;;;;;;;8.73;3.15;;;;;;;;;;5112851;27;20048;-82
2022/10/29 16:11:33;;;;;;;;;;;;;;;;;;;;;
2022/10/29 16:14:02;;;;;;;13.03;4.10;;;;;;;;;;5113072;27;39096;-82
2022/10/29 16:16:45;;;;;;;10.10;4.00;;;;;;;;;;5110266;27;21143;-83
2022/10/29 16:19:27;;;;;;;11.20;3.30;;;;;;;;;;5110235;27;20090;-83
2022/10/29 16:21:56;;;;;;;;;;;;;;;;;;5110250;27;20051;-83
2022/10/29 16:24:33;;;;;;;13.18;3.88;;;;;;;;;;5109613;27;20420;-83
2022/10/29 16:27:17;;;;;;;12.07;4.18;;;;;;;;;;5111323;27;20159;-83
2022/10/29 16:29:58;;;;;;;6.95;3.20;;;;;;;;;;5102787;27;20096;-82
2022/10/29 16:32:46;;;;;;;14.40;4.88;;;;;;;;;;5109509;27;20069;-83
2022/10/29 16:35:48;;;;;;;7.07;3.25;;;;;;;;;;5108541;27;20045;-82
2022/10/29 16:38:23;;;;;;;15.85;3.47;;;;;;;;;;5033770;28;20145;-82
2022/10/29 16:59:47;;;;;;;6.68;3.00;;;;;;;;;;5010456;22;20061;-76
2022/10/29 17:02:13;;;;;;;6.05;3.33;;;;;;;;;;5053306;28;20068;-77
2022/10/29 17:04:40;;;;;;;10.32;4.88;;;;;;;;;;5054283;28;20053;-76
2022/10/29 17:07:07;;;;;;;10.77;4.50;;;;;;;;;;5055950;28;20041;-76
2022/10/29 17:09:35;;;;;;;8.63;4.55;;;;;;;;;;5051318;28;20104;-77
2022/10/29 17:12:02;;;;;;;7.30;3.40;;;;;;;;;;5033633;28;20044;-78
2022/10/29 17:14:28;;;;;;;8.88;3.70;;;;;;;;;;5051555;28;20486;-77
2022/10/29 17:16:55;;;;;;;12.88;4.68;;;;;;;;;;5050925;28;20060;-77
2022/10/29 17:19:23;;;;;;;10.77;3.58;;;;;;;;;;5058027;28;20049;-76
2022/10/29 17:21:49;;;;;;;13.38;3.20;;;;;;;;;;5036910;28;20048;-77
2022/10/29 17:24:15;;;;;;;13.45;3.53;;;;;;;;;;5062941;28;20052;-77
2022/10/29 17:26:41;;;;;;;8.48;4.05;;;;;;;;;;5064507;28;20061;-77
2022/10/29 17:29:08;;;;;;;10.98;4.13;;;;;;;;;;5062355;28;20109;-77
2022/10/29 17:31:34;;;;;;;11.65;4.93;;;;;;;;;;5041915;28;20062;-77
2022/10/29 17:34:00;;;;;;;8.95;3.60;;;;;;;;;;5043642;28;20048;-77
2022/10/29 17:36:26;;;;;;;8.15;3.70;;;;;;;;;;5057786;28;20257;-77
2022/10/29 17:38:52;;;;;;;11.43;4.85;;;;;;;;;;5054922;28;20099;-77
2022/10/29 17:41:18;;;;;;;8.13;3.40;;;;;;;;;;5056357;28;20045;-79
2022/10/29 17:43:44;;;;;;;9.25;3.85;;;;;;;;;;5057201;28;20041;-78